Time;durP1;ratioP1;P1;durP2;ratioP2;P2;SDS_P1;SDS_P2;PMS_P1;PMS_P2;Temp;Humidity;BMP_temperature;BMP_pressure;BME280_temperature;BME280_humidity;BME280_pressure;Samples;Min_cycle;Max_cycle;Signal;HPM_P1;HPM_P2
2021/07/05 00:00:27;;;;;;;3.35;1.80;;;;;;;18.30;45.25;100558.81;3613584;39;20044;-70
2021/07/05 00:02:56;;;;;;;2.78;1.40;;;;;;;18.28;45.31;100560.03;3612911;39;20046;-70
2021/07/05 00:05:24;;;;;;;2.53;1.50;;;;;;;18.26;45.33;100546.41;3609838;39;20056;-70
2021/07/05 00:07:53;;;;;;;3.22;1.70;;;;;;;18.26;45.51;100540.88;3613992;39;20321;-70
2021/07/05 00:10:23;;;;;;;2.70;1.58;;;;;;;18.28;45.61;100544.28;3614665;39;20277;-70
2021/07/05 00:12:52;;;;;;;2.40;1.38;;;;;;;18.25;45.37;100561.28;3617172;39;20418;-70
2021/07/05 00:15:22;;;;;;;2.97;1.70;;;;;;;18.24;45.16;100554.03;3612231;39;20335;-70
2021/07/05 00:17:54;;;;;;;3.17;1.92;;;;;;;18.25;45.96;100558.53;3616565;39;20055;-70
2021/07/05 00:20:23;;;;;;;2.55;1.45;;;;;;;18.20;45.20;100560.13;3612092;39;20042;-70
2021/07/05 00:22:53;;;;;;;2.80;1.60;;;;;;;18.20;45.50;100552.69;3616635;39;20062;-70
2021/07/05 00:25:21;;;;;;;2.78;1.40;;;;;;;18.17;45.24;100541.13;3614044;39;20055;-70
2021/07/05 00:27:49;;;;;;;2.83;1.45;;;;;;;18.14;45.52;100547.03;3616282;39;20074;-70
2021/07/05 00:30:21;;;;;;;2.08;1.20;;;;;;;18.14;45.24;100556.22;3614631;39;20080;-70
2021/07/05 00:32:50;;;;;;;2.35;1.40;;;;;;;18.10;45.79;100563.19;3612679;39;20060;-70
2021/07/05 00:35:23;;;;;;;2.65;1.20;;;;;;;18.10;45.71;100554.88;3599260;39;20052;-70
2021/07/05 00:37:52;;;;;;;2.50;1.50;;;;;;;18.04;45.57;100547.31;3611608;39;20062;-70
2021/07/05 00:40:21;;;;;;;2.65;1.50;;;;;;;18.05;45.82;100552.66;3614466;39;20050;-69
2021/07/05 00:42:50;;;;;;;3.60;1.30;;;;;;;18.03;45.38;100542.81;3606486;39;20047;-69
2021/07/05 00:45:20;;;;;;;3.03;1.70;;;;;;;18.02;45.98;100533.66;3608179;39;20056;-70
2021/07/05 00:47:48;;;;;;;3.17;1.40;;;;;;;17.98;45.66;100524.00;3612815;39;20042;-70
2021/07/05 00:50:18;;;;;;;2.03;1.40;;;;;;;17.98;45.35;100534.19;3604802;39;20044;-70
2021/07/05 00:52:51;;;;;;;2.47;1.50;;;;;;;17.98;46.34;100542.50;3616597;39;20043;-69
2021/07/05 00:55:20;;;;;;;3.40;1.40;;;;;;;17.93;45.64;100529.25;3617948;39;20082;-70
2021/07/05 00:57:48;;;;;;;2.70;1.50;;;;;;;17.94;45.96;100510.75;3615890;39;20091;-70
2021/07/05 01:00:19;;;;;;;2.72;1.70;;;;;;;17.94;45.85;100513.50;3609375;39;20067;-70
2021/07/05 01:02:48;;;;;;;3.00;1.75;;;;;;;17.91;46.16;100506.44;3614114;39;20052;-70
2021/07/05 01:05:17;;;;;;;4.90;1.65;;;;;;;17.90;45.89;100513.00;3609829;39;20067;-70
2021/07/05 01:07:46;;;;;;;2.70;1.52;;;;;;;17.89;45.96;100507.66;3614818;39;20095;-70
2021/07/05 01:10:17;;;;;;;2.95;1.67;;;;;;;17.89;45.88;100499.34;3600510;39;20051;-69
2021/07/05 01:12:46;;;;;;;2.35;1.40;;;;;;;17.84;45.87;100502.69;3614934;39;20050;-69
2021/07/05 01:15:18;;;;;;;2.67;1.48;;;;;;;17.85;46.03;100518.25;3612294;39;20131;-70
2021/07/05 01:17:47;;;;;;;2.70;1.65;;;;;;;17.81;46.47;100505.84;3615394;39;20399;-70
2021/07/05 01:20:17;;;;;;;2.70;1.50;;;;;;;17.83;46.12;100500.13;3615203;39;20051;-70
2021/07/05 01:22:47;;;;;;;1.88;1.40;;;;;;;17.82;46.07;100504.78;3603731;39;20370;-70
2021/07/05 01:25:18;;;;;;;3.47;1.50;;;;;;;17.82;46.72;100498.41;3613126;39;20303;-70
2021/07/05 01:27:46;;;;;;;2.53;1.40;;;;;;;17.80;46.08;100503.25;3611428;39;20075;-69
2021/07/05 01:30:17;;;;;;;2.40;1.23;;;;;;;17.80;46.16;100494.94;3618300;39;20043;-69
2021/07/05 01:32:45;;;;;;;2.15;1.42;;;;;;;17.80;46.76;100490.28;3618279;39;20043;-70
2021/07/05 01:35:16;;;;;;;2.53;1.45;;;;;;;17.81;46.69;100496.66;3603635;39;20062;-70
2021/07/05 01:37:44;;;;;;;2.88;1.60;;;;;;;17.80;46.73;100503.25;3617992;39;20124;-70
2021/07/05 01:40:17;;;;;;;2.65;1.60;;;;;;;17.82;46.78;100496.50;3618636;39;20071;-69
2021/07/05 01:42:49;;;;;;;2.58;1.50;;;;;;;17.79;47.07;100507.91;3618755;39;20043;-69
2021/07/05 01:45:18;;;;;;;2.22;1.25;;;;;;;17.80;46.39;100503.25;3617512;39;20391;-69
2021/07/05 01:47:47;;;;;;;2.55;1.58;;;;;;;17.82;47.06;100495.63;3616321;39;20050;-69
2021/07/05 01:50:15;;;;;;;2.47;1.58;;;;;;;17.83;46.59;100494.59;3604959;39;20056;-69
2021/07/05 01:52:43;;;;;;;2.53;1.40;;;;;;;17.84;47.15;100493.53;3618706;39;20398;-69
2021/07/05 01:55:14;;;;;;;4.00;2.13;;;;;;;17.86;46.63;100480.38;3618175;39;20185;-69
2021/07/05 01:57:42;;;;;;;4.13;1.40;;;;;;;17.87;47.04;100480.16;3606723;39;20071;-70
2021/07/05 02:00:15;;;;;;;2.30;1.38;;;;;;;17.90;47.33;100479.81;3615447;39;20086;-70
2021/07/05 02:02:45;;;;;;;2.40;1.33;;;;;;;17.89;46.89;100477.22;3613357;39;20291;-69
2021/07/05 02:05:16;;;;;;;2.58;1.35;;;;;;;17.90;46.77;100474.25;3618362;39;20377;-70
2021/07/05 02:07:46;;;;;;;2.55;1.50;;;;;;;17.90;46.86;100473.41;3614364;39;20091;-69
2021/07/05 02:10:18;;;;;;;2.33;1.65;;;;;;;17.92;46.97;100474.09;3621843;39;20063;-69
2021/07/05 02:12:47;;;;;;;3.00;1.58;;;;;;;17.89;47.15;100472.53;3612709;39;20403;-69
2021/07/05 02:15:16;;;;;;;2.92;1.30;;;;;;;17.92;46.57;100463.00;3601923;39;20048;-69
2021/07/05 02:17:45;;;;;;;2.33;1.20;;;;;;;17.93;46.80;100464.75;3613206;39;20132;-69
2021/07/05 02:20:16;;;;;;;2.45;1.45;;;;;;;17.94;46.81;100467.31;3615609;39;20087;-69
2021/07/05 02:22:45;;;;;;;2.00;1.27;;;;;;;17.95;46.86;100457.94;3604272;39;20039;-69
2021/07/05 02:25:15;;;;;;;2.67;1.38;;;;;;;17.99;47.40;100461.19;3603345;39;20051;-69
2021/07/05 02:27:44;;;;;;;2.70;1.40;;;;;;;17.99;47.27;100456.53;3610006;39;20398;-69
2021/07/05 02:30:15;;;;;;;4.45;1.83;;;;;;;18.02;46.63;100458.06;3617140;39;20136;-68
2021/07/05 02:32:45;;;;;;;3.08;1.50;;;;;;;18.04;47.29;100450.44;3616981;39;20136;-69
2021/07/05 02:35:18;;;;;;;1.92;1.23;;;;;;;18.05;46.99;100446.63;3616374;39;20058;-69
2021/07/05 02:37:48;;;;;;;2.85;1.83;;;;;;;18.05;46.92;100441.94;3614484;39;20361;-69
2021/07/05 02:40:20;;;;;;;3.15;1.70;;;;;;;18.08;47.60;100437.09;3613941;39;20047;-68
2021/07/05 02:42:49;;;;;;;3.15;1.50;;;;;;;18.06;47.39;100438.13;3618314;39;20108;-68
2021/07/05 02:45:22;;;;;;;3.40;1.50;;;;;;;18.09;47.00;100444.34;3600997;39;20278;-68
2021/07/05 02:47:51;;;;;;;3.67;1.38;;;;;;;18.07;46.99;100450.06;3607921;39;20039;-68
2021/07/05 02:50:20;;;;;;;3.22;1.40;;;;;;;18.07;47.04;100447.31;3616251;39;20120;-68
2021/07/05 02:52:49;;;;;;;2.17;1.20;;;;;;;18.09;47.27;100447.13;3617473;39;20393;-68
2021/07/05 02:55:19;;;;;;;3.20;1.90;;;;;;;18.10;47.35;100452.47;3617920;39;20412;-68
2021/07/05 02:57:48;;;;;;;2.15;1.40;;;;;;;18.09;47.63;100438.81;3618553;39;20549;-68
2021/07/05 03:00:19;;;;;;;3.47;1.60;;;;;;;18.11;46.97;100448.66;3609029;39;20117;-68
2021/07/05 03:02:48;;;;;;;2.90;1.48;;;;;;;18.09;47.50;100447.97;3618585;39;20412;-68
2021/07/05 03:05:22;;;;;;;2.63;1.33;;;;;;;18.11;47.46;100450.56;3618804;39;20042;-68
2021/07/05 03:07:51;;;;;;;2.08;1.20;;;;;;;18.11;46.74;100456.09;3618481;39;20043;-68
2021/07/05 03:10:22;;;;;;;2.22;1.35;;;;;;;18.12;47.38;100450.34;3618174;39;20390;-68
2021/07/05 03:12:52;;;;;;;2.63;1.60;;;;;;;18.12;46.84;100452.25;3609342;39;20035;-68
2021/07/05 03:15:20;;;;;;;2.92;1.48;;;;;;;18.13;46.92;100448.44;3618059;39;20035;-68
2021/07/05 03:17:50;;;;;;;2.55;1.48;;;;;;;18.14;46.79;100441.84;3618488;39;20034;-68
2021/07/05 03:20:20;;;;;;;2.65;1.50;;;;;;;18.16;47.13;100448.06;3618359;39;20390;-68
2021/07/05 03:22:50;;;;;;;3.25;1.80;;;;;;;18.16;47.15;100454.47;3608951;39;20394;-68
2021/07/05 03:25:22;;;;;;;3.63;1.80;;;;;;;18.18;47.48;100448.72;3608995;39;20043;-68
2021/07/05 03:27:51;;;;;;;2.00;1.27;;;;;;;18.17;47.47;100455.31;3615995;39;20040;-68
2021/07/05 03:30:21;;;;;;;3.28;1.38;;;;;;;18.19;47.41;100459.63;3598420;39;20438;-68
2021/07/05 03:32:50;;;;;;;2.50;1.50;;;;;;;18.20;47.47;100460.44;3590176;39;20059;-68
2021/07/05 03:35:19;;;;;;;2.42;1.20;;;;;;;18.21;47.09;100453.88;3598434;39;20024;-68
2021/07/05 03:37:48;;;;;;;2.58;1.48;;;;;;;18.22;47.72;100452.81;3598240;39;20121;-68
2021/07/05 03:40:19;;;;;;;2.97;1.35;;;;;;;18.23;47.31;100449.00;3590321;39;20095;-68
2021/07/05 03:42:51;;;;;;;2.35;1.40;;;;;;;18.24;47.43;100451.59;3608076;39;20064;-68
2021/07/05 03:45:21;;;;;;;3.28;1.50;;;;;;;18.23;47.43;100449.88;3608439;39;20038;-68
2021/07/05 03:47:49;;;;;;;3.72;1.30;;;;;;;18.22;47.37;100441.75;3598691;39;20028;-68
2021/07/05 03:50:19;;;;;;;3.88;1.30;;;;;;;18.24;46.87;100451.59;3598535;39;20032;-68
2021/07/05 03:52:48;;;;;;;2.33;1.30;;;;;;;18.23;47.22;100458.16;3608499;39;20032;-68
2021/07/05 03:55:20;;;;;;;4.95;1.70;;;;;;;18.24;47.55;100454.34;3598379;39;20032;-68
2021/07/05 03:57:49;;;;;;;3.50;1.80;;;;;;;18.23;47.89;100447.09;3612812;39;20035;-68
2021/07/05 04:00:22;;;;;;;3.35;1.50;;;;;;;18.25;47.24;100464.38;3617550;39;20127;-68
2021/07/05 04:02:51;;;;;;;3.17;1.17;;;;;;;18.22;47.14;100491.59;3608910;39;20302;-68
2021/07/05 04:05:19;;;;;;;3.42;1.30;;;;;;;18.23;46.93;100487.75;3617467;39;20057;-68
2021/07/05 04:07:47;;;;;;;2.72;1.48;;;;;;;18.21;47.32;100492.63;3616418;39;20038;-68
2021/07/05 04:10:17;;;;;;;2.03;1.30;;;;;;;18.19;47.85;100503.91;3607705;39;20036;-68
2021/07/05 04:12:45;;;;;;;2.67;1.25;;;;;;;18.16;47.41;100507.06;3621987;39;20032;-68
2021/07/05 04:15:15;;;;;;;2.45;1.50;;;;;;;18.13;47.08;100510.19;3609850;39;20046;-68
2021/07/05 04:17:45;;;;;;;2.80;1.23;;;;;;;18.09;47.01;100511.63;3624645;39;20082;-68
2021/07/05 04:20:16;;;;;;;2.22;1.05;;;;;;;18.03;47.10;100504.06;3625844;39;20071;-69
2021/07/05 04:22:45;;;;;;;1.77;0.98;;;;;;;17.95;47.04;100510.53;3618234;39;20038;-69
2021/07/05 04:25:16;;;;;;;3.53;1.08;;;;;;;17.90;47.57;100529.63;3619016;39;20062;-69
2021/07/05 04:27:45;;;;;;;1.00;0.70;;;;;;;17.82;47.23;100532.47;3601468;39;20156;-69
2021/07/05 04:30:15;;;;;;;1.70;0.85;;;;;;;17.76;47.20;100530.44;3605612;39;20299;-69
2021/07/05 04:32:45;;;;;;;1.15;0.70;;;;;;;17.69;47.51;100522.03;3622748;39;20414;-72
2021/07/05 04:35:16;;;;;;;2.30;0.70;;;;;;;17.62;47.92;100515.50;3617085;39;20031;-68
2021/07/05 04:37:46;;;;;;;1.30;0.75;;;;;;;17.59;48.34;100517.81;3607302;39;20039;-69
2021/07/05 04:40:17;;;;;;;1.52;0.95;;;;;;;17.55;48.61;100528.38;3605809;39;20047;-70
2021/07/05 04:42:46;;;;;;;2.40;1.00;;;;;;;17.51;48.34;100523.41;3605770;39;20147;-70
2021/07/05 04:45:15;;;;;;;2.63;0.73;;;;;;;17.49;48.41;100522.72;3604930;39;20055;-70
2021/07/05 04:47:45;;;;;;;1.33;1.00;;;;;;;17.47;49.25;100519.28;3611778;39;20073;-70
2021/07/05 04:50:16;;;;;;;1.95;0.82;;;;;;;17.45;48.76;100543.53;3615771;39;20043;-70
2021/07/05 04:52:45;;;;;;;2.90;1.27;;;;;;;17.42;48.58;100541.13;3617625;39;20071;-70
2021/07/05 04:55:16;;;;;;;2.22;1.10;;;;;;;17.39;48.62;100533.19;3613413;39;20043;-70
2021/07/05 04:57:45;;;;;;;2.10;1.20;;;;;;;17.34;48.55;100536.50;3612141;39;20083;-70
2021/07/05 05:03:53;;;;;;;1.35;0.90;;;;;;;17.24;48.88;100530.31;3576100;40;20134;-70
2021/07/05 05:06:24;;;;;;;2.00;0.88;;;;;;;17.20;48.56;100537.28;3602303;39;20058;-70
2021/07/05 05:08:53;;;;;;;1.88;0.90;;;;;;;17.18;48.67;100567.00;3616864;39;20075;-70
2021/07/05 05:11:21;;;;;;;1.77;0.90;;;;;;;17.16;47.75;100574.59;3615519;39;20055;-70
2021/07/05 05:13:54;;;;;;;1.98;1.00;;;;;;;17.11;47.95;100554.97;3603095;39;20394;-70
2021/07/05 05:16:25;;;;;;;2.33;0.90;;;;;;;17.10;48.12;100556.00;3634153;22;20055;-71
2021/07/05 05:18:55;;;;;;;2.00;1.00;;;;;;;17.09;48.59;100563.44;3604611;39;20038;-71
2021/07/05 05:21:24;;;;;;;2.38;1.08;;;;;;;17.04;48.43;100562.25;3612404;39;20047;-72
2021/07/05 05:23:52;;;;;;;1.65;0.80;;;;;;;17.02;48.43;100556.91;3605862;39;20067;-71
2021/07/05 05:26:21;;;;;;;2.40;1.10;;;;;;;17.00;48.32;100550.69;3598526;39;20055;-72
2021/07/05 05:28:49;;;;;;;2.42;1.05;;;;;;;16.99;48.89;100559.16;3602338;39;20043;-71
2021/07/05 05:31:18;;;;;;;2.45;1.10;;;;;;;16.99;48.70;100561.94;3594945;39;20064;-72
2021/07/05 05:33:46;;;;;;;2.13;1.20;;;;;;;16.97;48.72;100559.34;3598906;39;20063;-71
2021/07/05 05:36:16;;;;;;;2.13;1.08;;;;;;;16.98;48.73;100546.38;3601392;39;20055;-71
2021/07/05 05:38:48;;;;;;;1.75;1.00;;;;;;;16.94;48.63;100545.91;3593667;39;20081;-72
2021/07/05 05:41:17;;;;;;;2.13;1.08;;;;;;;16.93;48.72;100553.34;3595757;39;20058;-72
2021/07/05 05:43:45;;;;;;;2.33;1.50;;;;;;;16.92;48.42;100548.84;3605025;39;20385;-72
2021/07/05 05:46:17;;;;;;;2.55;1.40;;;;;;;16.94;48.98;100556.97;3586134;39;20053;-72
2021/07/05 05:48:50;;;;;;;2.63;1.25;;;;;;;16.92;48.56;100562.66;3598910;39;20050;-71
2021/07/05 05:51:20;;;;;;;2.33;1.30;;;;;;;16.94;48.28;100548.66;3602645;39;20045;-72
2021/07/05 05:53:48;;;;;;;4.68;1.50;;;;;;;16.93;48.67;100542.28;3596862;39;20056;-73
2021/07/05 05:56:17;;;;;;;3.58;1.63;;;;;;;16.93;48.74;100534.00;3573241;39;20089;-72
2021/07/05 05:58:45;;;;;;;2.35;1.30;;;;;;;16.93;48.75;100538.66;3587157;39;20318;-72
2021/07/05 06:01:13;;;;;;;2.83;1.58;;;;;;;16.93;49.21;100546.94;3586779;39;20062;-72
2021/07/05 06:03:41;;;;;;;2.33;1.25;;;;;;;16.91;48.71;100537.97;3559104;40;20348;-73
2021/07/05 06:06:10;;;;;;;3.30;1.50;;;;;;;16.93;48.89;100530.38;3554222;40;20066;-73
2021/07/05 06:08:40;;;;;;;2.42;1.38;;;;;;;16.93;48.84;100536.75;3552849;40;20130;-72
2021/07/05 06:11:08;;;;;;;2.97;1.40;;;;;;;16.91;49.08;100540.72;3554961;40;20074;-72
2021/07/05 06:13:37;;;;;;;3.15;1.48;;;;;;;16.91;48.99;100537.97;3554806;40;20077;-72
2021/07/05 06:16:05;;;;;;;3.33;1.45;;;;;;;16.89;49.08;100529.84;3554100;40;20039;-73
2021/07/05 06:18:34;;;;;;;3.05;1.50;;;;;;;16.89;49.45;100535.38;3561568;40;20055;-72
2021/07/05 06:21:03;;;;;;;2.67;1.50;;;;;;;16.89;49.44;100526.22;3585189;40;20054;-72
2021/07/05 06:23:32;;;;;;;3.35;1.65;;;;;;;16.88;49.44;100524.50;3554659;40;20306;-72
2021/07/05 06:26:04;;;;;;;3.42;1.90;;;;;;;16.89;50.17;100523.47;3550099;40;20046;-72
2021/07/05 06:28:35;;;;;;;2.22;1.35;;;;;;;16.86;50.03;100530.25;3555792;40;20135;-71
2021/07/05 06:31:05;;;;;;;2.78;1.40;;;;;;;16.88;49.88;100539.19;3560649;40;20073;-71
2021/07/05 06:33:33;;;;;;;2.80;1.60;;;;;;;16.88;50.27;100530.91;3553837;40;20052;-71
2021/07/05 06:36:02;;;;;;;2.42;1.42;;;;;;;16.91;49.97;100540.72;3549988;40;20057;-71
2021/07/05 06:38:31;;;;;;;3.40;1.92;;;;;;;16.93;49.91;100536.75;3554935;40;20057;-71
2021/07/05 06:41:00;;;;;;;2.90;1.75;;;;;;;16.95;50.55;100533.81;3553781;40;20060;-71
2021/07/05 06:43:30;;;;;;;4.05;1.92;;;;;;;17.00;50.17;100531.34;3549754;40;20052;-72
2021/07/05 06:46:10;;;;;;;2.90;1.70;;;;;;;17.01;50.64;100526.69;3555614;39;20057;-72
2021/07/05 06:48:38;;;;;;;5.50;2.20;;;;;;;17.05;50.71;100516.97;3554539;40;20064;-72
2021/07/05 06:51:06;;;;;;;4.40;2.20;;;;;;;17.06;50.67;100516.81;3551757;40;20119;-72
2021/07/05 06:53:35;;;;;;;3.80;1.90;;;;;;;17.09;50.14;100510.91;3554847;40;20375;-72
2021/07/05 06:56:03;;;;;;;3.50;2.13;;;;;;;17.10;50.41;100506.25;3554679;40;20050;-71
2021/07/05 06:58:33;;;;;;;3.50;2.15;;;;;;;17.13;50.72;100517.78;3555782;40;20368;-71
2021/07/05 07:01:01;;;;;;;5.63;2.20;;;;;;;17.13;50.77;100525.22;3555228;40;20053;-71
2021/07/05 07:03:30;;;;;;;4.00;2.13;;;;;;;17.15;51.11;100536.94;3554535;40;20295;-72
2021/07/05 07:05:58;;;;;;;4.22;1.83;;;;;;;17.17;50.53;100526.56;3555365;40;20058;-71
2021/07/05 07:08:27;;;;;;;3.47;1.92;;;;;;;17.20;50.53;100523.47;3553282;40;20046;-71
2021/07/05 07:10:55;;;;;;;3.55;1.70;;;;;;;17.24;50.72;100533.94;3555112;40;20060;-70
2021/07/05 07:13:23;;;;;;;3.03;1.52;;;;;;;17.26;50.67;100545.69;3554360;40;20065;-70
2021/07/05 07:15:55;;;;;;;2.45;1.48;;;;;;;17.31;50.64;100565.38;3558474;40;20443;-70
2021/07/05 07:21:06;;;;;;;3.17;1.80;;;;;;;17.32;50.45;100566.25;3562679;40;20355;-71
2021/07/05 07:23:35;;;;;;;2.95;1.70;;;;;;;17.39;50.29;100571.88;3555939;40;20046;-71
2021/07/05 07:26:04;;;;;;;2.90;1.67;;;;;;;17.41;50.10;100569.81;3553963;40;20061;-70
2021/07/05 07:28:32;;;;;;;3.97;1.50;;;;;;;17.42;50.26;100575.16;3595436;39;20054;-70
2021/07/05 07:31:02;;;;;;;1.92;1.17;;;;;;;17.45;49.76;100572.03;3552169;40;20058;-69
2021/07/05 07:33:31;;;;;;;1.73;1.20;;;;;;;17.45;50.00;100576.72;3551085;40;20042;-69
2021/07/05 07:36:02;;;;;;;1.52;0.88;;;;;;;17.47;50.24;100577.34;3551485;40;20049;-70
2021/07/05 07:38:36;;;;;;;2.45;1.10;;;;;;;17.48;50.26;100570.78;3588961;40;20066;-70
2021/07/05 07:41:04;;;;;;;2.45;1.30;;;;;;;17.50;50.09;100575.09;3587706;40;20058;-71
2021/07/05 07:43:32;;;;;;;2.55;1.17;;;;;;;17.53;50.06;100568.34;3555401;40;20081;-70
2021/07/05 07:46:03;;;;;;;2.53;1.23;;;;;;;17.57;50.36;100562.25;3553261;40;20065;-70
2021/07/05 07:48:32;;;;;;;1.67;1.13;;;;;;;17.57;50.40;100556.72;3587601;40;20161;-70
2021/07/05 07:51:00;;;;;;;2.65;1.42;;;;;;;17.61;50.22;100562.75;3557144;40;20133;-70
2021/07/05 07:53:29;;;;;;;2.90;1.40;;;;;;;17.64;50.02;100560.44;3590942;40;20345;-70
2021/07/05 07:55:58;;;;;;;1.83;1.10;;;;;;;17.68;50.21;100552.66;3564141;40;20054;-72
2021/07/05 07:58:27;;;;;;;2.35;1.27;;;;;;;17.73;50.34;100552.09;3559893;40;20062;-70
2021/07/05 08:00:55;;;;;;;2.13;1.17;;;;;;;17.77;50.53;100553.44;3554628;40;20054;-70
2021/07/05 08:03:30;;;;;;;2.10;1.40;;;;;;;17.82;50.81;100550.97;3590540;40;20072;-69
2021/07/05 08:05:59;;;;;;;3.30;1.48;;;;;;;17.86;50.71;100557.88;3555611;40;20054;-70
2021/07/05 08:08:28;;;;;;;2.78;1.60;;;;;;;17.89;50.49;100566.63;3556301;40;20060;-70
2021/07/05 08:10:57;;;;;;;2.20;1.40;;;;;;;17.93;50.38;100556.91;3557545;40;20057;-71
2021/07/05 08:13:25;;;;;;;3.00;1.45;;;;;;;17.97;50.12;100563.78;3556834;39;20046;-71
2021/07/05 08:15:54;;;;;;;3.42;2.00;;;;;;;18.03;50.31;100570.50;3561953;40;20390;-70
2021/07/05 08:18:23;;;;;;;3.72;1.98;;;;;;;18.07;49.70;100563.56;3555123;40;20048;-69
2021/07/05 08:20:53;;;;;;;2.63;1.60;;;;;;;18.13;50.24;100568.31;3556195;39;20139;-70
2021/07/05 08:23:22;;;;;;;2.80;1.70;;;;;;;18.18;50.37;100565.00;3556317;40;20349;-70
2021/07/05 08:25:50;;;;;;;4.38;1.90;;;;;;;18.23;50.00;100566.16;3572249;39;20054;-69
2021/07/05 08:28:19;;;;;;;3.75;1.73;;;;;;;18.28;49.71;100555.34;3556343;40;20049;-70
2021/07/05 08:30:47;;;;;;;2.50;1.55;;;;;;;18.33;49.86;100550.13;3590973;40;20052;-68
2021/07/05 08:33:16;;;;;;;3.38;1.75;;;;;;;18.39;49.25;100556.78;3556035;40;20053;-69
2021/07/05 08:35:45;;;;;;;2.83;1.77;;;;;;;18.44;49.23;100557.09;3552665;40;20050;-69
2021/07/05 08:38:15;;;;;;;3.10;1.80;;;;;;;18.50;49.65;100556.34;3552421;40;20066;-68
2021/07/05 08:40:44;;;;;;;3.10;1.48;;;;;;;18.54;49.50;100551.25;3553821;40;20053;-70
2021/07/05 08:43:13;;;;;;;3.30;1.95;;;;;;;18.57;49.55;100562.81;3589369;39;20069;-70
2021/07/05 08:45:43;;;;;;;5.65;2.00;;;;;;;18.60;49.09;100562.44;3556688;40;20068;-69
2021/07/05 08:48:15;;;;;;;3.05;1.65;;;;;;;18.65;48.81;100559.09;3558113;40;20042;-68
2021/07/05 08:50:47;;;;;;;2.50;1.70;;;;;;;18.67;48.37;100565.31;3556751;40;20082;-68
2021/07/05 08:53:17;;;;;;;2.70;1.55;;;;;;;18.68;48.66;100573.44;3556247;40;20046;-68
2021/07/05 08:55:46;;;;;;;3.05;1.70;;;;;;;18.71;48.06;100569.38;3556714;40;20126;-69
2021/07/05 08:58:14;;;;;;;3.60;1.80;;;;;;;18.73;47.99;100578.38;3553614;40;20090;-69
2021/07/05 09:00:43;;;;;;;4.10;1.70;;;;;;;18.73;48.29;100579.25;3590049;39;20065;-69
2021/07/05 09:03:12;;;;;;;3.03;1.52;;;;;;;18.74;47.79;100582.88;3590366;40;20115;-70
2021/07/05 09:05:40;;;;;;;3.22;1.77;;;;;;;18.73;47.58;100575.59;3556484;40;20050;-69
2021/07/05 09:08:10;;;;;;;2.97;1.85;;;;;;;18.73;47.78;100573.69;3553342;40;20069;-71
2021/07/05 09:11:01;;;;;;;3.70;1.98;;;;;;;18.72;46.79;100571.13;3574223;40;20048;-71
2021/07/05 09:13:30;;;;;;;4.07;1.42;;;;;;;18.69;47.62;100564.03;3564221;40;20130;-72
2021/07/05 09:16:07;;;;;;;4.20;1.80;;;;;;;18.67;47.71;100563.38;3583123;40;20116;-71
2021/07/05 09:18:38;;;;;;;3.22;1.60;;;;;;;18.68;47.59;100561.47;3585556;40;20414;-71
2021/07/05 09:21:17;;;;;;;4.03;2.00;;;;;;;18.70;47.49;100560.22;3583886;40;20050;-71
2021/07/05 09:23:56;;;;;;;3.10;1.58;;;;;;;18.69;47.14;100560.44;3552088;40;20134;-71
2021/07/05 09:26:29;;;;;;;3.50;1.60;;;;;;;18.68;47.81;100562.34;3554796;40;20109;-70
2021/07/05 09:28:59;;;;;;;3.40;1.60;;;;;;;18.68;48.04;100554.03;3585297;39;20081;-70
2021/07/05 09:31:30;;;;;;;4.78;1.88;;;;;;;18.71;47.93;100552.75;3559959;40;20120;-70
2021/07/05 09:33:59;;;;;;;3.95;1.70;;;;;;;18.72;47.79;100557.25;3555577;40;20139;-70
2021/07/05 09:36:28;;;;;;;3.15;1.58;;;;;;;18.75;47.92;100565.19;3575747;40;20062;-70
2021/07/05 09:38:56;;;;;;;3.50;1.70;;;;;;;18.77;47.82;100554.78;3585371;40;20048;-69
2021/07/05 09:41:29;;;;;;;3.45;1.73;;;;;;;18.79;47.44;100553.56;3555313;40;20109;-70
2021/07/05 09:44:01;;;;;;;2.63;1.52;;;;;;;18.81;46.94;100576.41;3554748;40;20065;-70
2021/07/05 09:46:38;;;;;;;3.47;1.70;;;;;;;18.80;47.18;100566.34;3555382;40;20056;-68
2021/07/05 09:49:26;;;;;;;4.00;1.50;;;;;;;18.81;47.12;100568.09;3551859;40;20080;-69
2021/07/05 09:52:10;;;;;;;3.35;1.73;;;;;;;18.83;47.24;100572.56;3584341;40;20061;-69
2021/07/05 09:54:40;;;;;;;3.60;1.35;;;;;;;18.81;47.08;100573.63;3559608;40;20342;-69
2021/07/05 09:57:26;;;;;;;3.30;1.60;;;;;;;18.83;46.72;100567.91;3563868;40;20053;-69
2021/07/05 09:59:56;;;;;;;3.50;1.30;;;;;;;18.83;46.79;100567.03;3552550;40;20073;-69
2021/07/05 10:02:25;;;;;;;3.70;1.67;;;;;;;18.83;46.97;100556.81;3553797;40;20053;-68
2021/07/05 10:05:10;;;;;;;3.05;1.30;;;;;;;18.87;47.26;100555.34;3551462;40;20180;-70
2021/07/05 10:07:41;;;;;;;3.17;1.40;;;;;;;18.88;46.82;100561.75;3556407;40;20073;-70
2021/07/05 10:10:13;;;;;;;2.90;1.52;;;;;;;18.92;47.07;100560.31;3555526;40;20077;-70
2021/07/05 10:12:52;;;;;;;3.67;1.40;;;;;;;18.96;46.90;100567.19;3594862;39;20180;-70
2021/07/05 10:15:23;;;;;;;2.97;1.30;;;;;;;18.97;46.81;100571.69;3588716;40;20085;-69
2021/07/05 10:17:52;;;;;;;2.60;1.45;;;;;;;18.99;46.53;100562.13;3552397;40;20308;-69
2021/07/05 10:20:24;;;;;;;3.17;1.65;;;;;;;19.03;47.07;100557.91;3555578;40;20052;-69
2021/07/05 10:22:55;;;;;;;2.13;1.30;;;;;;;19.07;46.30;100547.28;3554751;40;20050;-69
2021/07/05 10:25:25;;;;;;;2.90;1.67;;;;;;;19.10;46.49;100550.50;3569606;40;20052;-69
2021/07/05 10:27:55;;;;;;;4.00;1.50;;;;;;;19.15;46.49;100549.94;3585719;40;20061;-69
2021/07/05 10:30:25;;;;;;;3.55;1.67;;;;;;;19.18;46.30;100547.63;3554802;40;20053;-69
2021/07/05 10:32:55;;;;;;;2.72;1.42;;;;;;;19.23;46.55;100541.50;3549802;40;20089;-69
2021/07/05 10:35:27;;;;;;;3.20;1.38;;;;;;;19.27;46.55;100540.03;3559538;40;20061;-69
2021/07/05 10:37:58;;;;;;;2.97;1.45;;;;;;;19.31;46.01;100544.16;3585142;40;20060;-69
2021/07/05 10:40:34;;;;;;;2.47;1.30;;;;;;;19.42;45.58;100537.22;3574934;40;20063;-69
2021/07/05 10:43:04;;;;;;;3.97;1.50;;;;;;;19.48;46.01;100537.28;3555685;40;20061;-69
2021/07/05 10:45:41;;;;;;;3.30;1.48;;;;;;;19.58;45.85;100534.22;3562619;40;20412;-68
2021/07/05 10:48:11;;;;;;;3.80;1.52;;;;;;;19.65;45.66;100542.59;3584846;40;20204;-68
2021/07/05 10:50:59;;;;;;;2.65;1.17;;;;;;;19.71;44.90;100536.22;3593588;39;20085;-69
2021/07/05 10:53:55;;;;;;;3.08;1.27;;;;;;;19.76;45.73;100530.97;3596963;39;20063;-69
2021/07/05 10:56:41;;;;;;;2.50;1.30;;;;;;;19.84;44.53;100526.09;3583165;40;20145;-69
2021/07/05 10:59:37;;;;;;;3.40;1.40;;;;;;;19.89;44.46;100528.28;3605347;39;20067;-69
2021/07/05 11:02:46;;;;;;;2.42;1.15;;;;;;;19.93;44.46;100527.66;3605703;39;20066;-69
2021/07/05 11:05:42;;;;;;;3.35;1.20;;;;;;;20.01;44.13;100536.94;3604492;39;20027;-69
2021/07/05 11:08:26;;;;;;;2.03;1.27;;;;;;;20.07;44.42;100525.88;3601984;39;20051;-69
2021/07/05 11:11:27;;;;;;;3.95;1.63;;;;;;;20.08;43.82;100527.59;3602360;39;20075;-69
2021/07/05 11:14:15;;;;;;;1.95;1.10;;;;;;;20.10;44.04;100524.56;3604879;39;20356;-69
2021/07/05 11:17:07;;;;;;;3.08;1.40;;;;;;;20.12;43.23;100519.69;3598579;39;20076;-69
2021/07/05 11:19:46;;;;;;;1.90;1.15;;;;;;;20.13;43.99;100516.72;3598277;39;20067;-69
2021/07/05 11:22:25;;;;;;;2.97;1.20;;;;;;;20.20;43.31;100519.53;3609412;39;20419;-69
2021/07/05 11:25:03;;;;;;;2.75;1.40;;;;;;;20.22;43.33;100517.44;3607310;39;20412;-68
2021/07/05 11:27:51;;;;;;;2.25;1.25;;;;;;;20.24;43.34;100512.56;3605230;39;20083;-69
2021/07/05 11:30:23;;;;;;;2.97;1.20;;;;;;;20.24;42.64;100507.00;3588287;39;20055;-69
2021/07/05 11:32:57;;;;;;;3.07;1.20;;;;;;;20.27;42.66;100514.91;3606941;39;20055;-69
2021/07/05 11:35:38;;;;;;;2.42;1.20;;;;;;;20.32;42.48;100515.16;3598148;39;20160;-69
2021/07/05 11:38:10;;;;;;;2.03;1.20;;;;;;;20.30;42.83;100515.38;3594326;39;20040;-69
2021/07/05 11:40:49;;;;;;;2.55;1.35;;;;;;;20.33;42.78;100508.56;3605382;39;20328;-69
2021/07/05 11:43:38;;;;;;;2.92;1.17;;;;;;;20.33;42.47;100511.31;3608191;39;20059;-68
2021/07/05 11:46:07;;;;;;;3.05;1.40;;;;;;;20.32;42.69;100501.28;3606690;39;20056;-69
2021/07/05 11:48:55;;;;;;;1.88;1.10;;;;;;;20.33;41.43;100497.44;3607068;39;20048;-69